sensor_id;sensor_type;location;lat;lon;timestamp;pressure;altitude;pressure_sealevel;temperature;humidity
55592;BME280;41454;53.396;-1.510;2022-12-29T00:00:37;97110.63;;;4.81;100.00
55592;BME280;41454;53.396;-1.510;2022-12-29T00:03:04;97115.68;;;4.77;100.00
55592;BME280;41454;53.396;-1.510;2022-12-29T00:05:31;97111.76;;;5.06;100.00
55592;BME280;41454;53.396;-1.510;2022-12-29T00:07:59;97113.72;;;5.04;100.00
55592;BME280;41454;53.396;-1.510;2022-12-29T00:10:26;97099.25;;;5.05;100.00
55592;BME280;41454;53.396;-1.510;2022-12-29T00:12:54;97095.59;;;4.94;100.00
55592;BME280;41454;53.396;-1.510;2022-12-29T00:15:21;97122.26;;;4.82;100.00
55592;BME280;41454;53.396;-1.510;2022-12-29T00:17:49;97131.84;;;4.58;100.00
55592;BME280;41454;53.396;-1.510;2022-12-29T00:20:16;97108.14;;;4.98;100.00
55592;BME280;41454;53.396;-1.510;2022-12-29T00:22:44;97111.89;;;5.07;100.00
55592;BME280;41454;53.396;-1.510;2022-12-29T00:25:12;97101.82;;;5.03;100.00
55592;BME280;41454;53.396;-1.510;2022-12-29T00:27:40;97107.03;;;4.97;100.00
55592;BME280;41454;53.396;-1.510;2022-12-29T00:30:09;97085.65;;;4.95;100.00
55592;BME280;41454;53.396;-1.510;2022-12-29T00:32:37;97086.89;;;5.02;100.00
55592;BME280;41454;53.396;-1.510;2022-12-29T00:35:06;97096.30;;;4.88;100.00
55592;BME280;41454;53.396;-1.510;2022-12-29T00:37:34;97089.58;;;4.81;100.00
55592;BME280;41454;53.396;-1.510;2022-12-29T00:40:02;97094.98;;;4.90;100.00
55592;BME280;41454;53.396;-1.510;2022-12-29T00:42:29;97086.36;;;4.79;100.00
55592;BME280;41454;53.396;-1.510;2022-12-29T00:44:57;97084.77;;;4.77;100.00
55592;BME280;41454;53.396;-1.510;2022-12-29T00:47:42;97087.42;;;4.96;100.00
55592;BME280;41454;53.396;-1.510;2022-12-29T00:50:09;97090.41;;;4.80;100.00
55592;BME280;41454;53.396;-1.510;2022-12-29T00:52:36;97084.94;;;4.86;100.00
55592;BME280;41454;53.396;-1.510;2022-12-29T00:55:03;97072.94;;;4.88;100.00
55592;BME280;41454;53.396;-1.510;2022-12-29T00:57:31;97078.53;;;4.72;100.00
55592;BME280;41454;53.396;-1.510;2022-12-29T00:59:58;97078.95;;;4.74;100.00
55592;BME280;41454;53.396;-1.510;2022-12-29T01:02:26;97085.89;;;4.78;100.00
55592;BME280;41454;53.396;-1.510;2022-12-29T01:04:53;97089.56;;;4.78;100.00
55592;BME280;41454;53.396;-1.510;2022-12-29T01:07:21;97096.62;;;4.85;100.00
55592;BME280;41454;53.396;-1.510;2022-12-29T01:09:48;97089.00;;;4.94;100.00
55592;BME280;41454;53.396;-1.510;2022-12-29T01:12:16;97091.84;;;5.02;100.00
55592;BME280;41454;53.396;-1.510;2022-12-29T01:14:43;97094.12;;;4.78;100.00
55592;BME280;41454;53.396;-1.510;2022-12-29T01:17:09;97106.35;;;5.21;100.00
55592;BME280;41454;53.396;-1.510;2022-12-29T01:19:37;97102.49;;;4.80;100.00
55592;BME280;41454;53.396;-1.510;2022-12-29T01:22:05;97107.91;;;4.43;100.00
55592;BME280;41454;53.396;-1.510;2022-12-29T01:24:32;97112.18;;;4.84;100.00
55592;BME280;41454;53.396;-1.510;2022-12-29T01:27:00;97116.10;;;4.87;100.00
55592;BME280;41454;53.396;-1.510;2022-12-29T01:29:27;97122.65;;;4.67;100.00
55592;BME280;41454;53.396;-1.510;2022-12-29T01:31:55;97126.76;;;5.14;100.00
55592;BME280;41454;53.396;-1.510;2022-12-29T01:34:22;97120.59;;;4.77;100.00
55592;BME280;41454;53.396;-1.510;2022-12-29T01:36:50;97151.16;;;5.04;100.00
55592;BME280;41454;53.396;-1.510;2022-12-29T01:39:17;97127.30;;;4.64;100.00
55592;BME280;41454;53.396;-1.510;2022-12-29T01:41:44;97133.02;;;5.03;100.00
55592;BME280;41454;53.396;-1.510;2022-12-29T01:45:17;97145.54;;;4.64;100.00
55592;BME280;41454;53.396;-1.510;2022-12-29T01:47:47;97156.81;;;4.41;100.00
55592;BME280;41454;53.396;-1.510;2022-12-29T01:50:19;97160.22;;;4.26;100.00
55592;BME280;41454;53.396;-1.510;2022-12-29T01:52:51;97173.53;;;4.30;100.00
55592;BME280;41454;53.396;-1.510;2022-12-29T01:55:22;97186.38;;;4.23;100.00
55592;BME280;41454;53.396;-1.510;2022-12-29T01:57:53;97195.19;;;3.86;100.00
55592;BME280;41454;53.396;-1.510;2022-12-29T02:00:23;97206.15;;;3.92;100.00
55592;BME280;41454;53.396;-1.510;2022-12-29T02:02:52;97224.00;;;4.23;100.00
55592;BME280;41454;53.396;-1.510;2022-12-29T02:05:24;97228.63;;;3.94;100.00
55592;BME280;41454;53.396;-1.510;2022-12-29T02:07:54;97240.06;;;4.16;100.00
55592;BME280;41454;53.396;-1.510;2022-12-29T02:10:23;97257.03;;;4.10;100.00
55592;BME280;41454;53.396;-1.510;2022-12-29T02:12:51;97284.92;;;3.46;100.00
55592;BME280;41454;53.396;-1.510;2022-12-29T02:15:22;97288.64;;;2.42;100.00
55592;BME280;41454;53.396;-1.510;2022-12-29T02:18:05;97296.50;;;1.52;100.00
55592;BME280;41454;53.396;-1.510;2022-12-29T02:22:15;97311.06;;;1.66;100.00
55592;BME280;41454;53.396;-1.510;2022-12-29T02:25:01;97314.15;;;1.54;100.00
55592;BME280;41454;53.396;-1.510;2022-12-29T02:28:54;97314.11;;;1.30;100.00
55592;BME280;41454;53.396;-1.510;2022-12-29T02:31:33;97316.83;;;1.02;100.00
55592;BME280;41454;53.396;-1.510;2022-12-29T02:34:14;97320.20;;;1.15;100.00
55592;BME280;41454;53.396;-1.510;2022-12-29T02:36:46;97314.62;;;1.36;100.00
55592;BME280;41454;53.396;-1.510;2022-12-29T02:39:23;97322.98;;;1.36;100.00
55592;BME280;41454;53.396;-1.510;2022-12-29T02:41:58;97325.76;;;1.19;100.00
55592;BME280;41454;53.396;-1.510;2022-12-29T02:44:36;97318.50;;;1.66;100.00
55592;BME280;41454;53.396;-1.510;2022-12-29T02:47:14;97318.51;;;1.63;100.00
55592;BME280;41454;53.396;-1.510;2022-12-29T02:49:48;97316.21;;;1.57;100.00
55592;BME280;41454;53.396;-1.510;2022-12-29T02:52:22;97311.50;;;1.81;100.00
55592;BME280;41454;53.396;-1.510;2022-12-29T02:54:53;97309.56;;;1.69;100.00
55592;BME280;41454;53.396;-1.510;2022-12-29T02:57:30;97312.15;;;1.79;100.00
55592;BME280;41454;53.396;-1.510;2022-12-29T03:00:06;97312.21;;;1.94;100.00
55592;BME280;41454;53.396;-1.510;2022-12-29T03:03:01;97312.62;;;1.63;100.00
55592;BME280;41454;53.396;-1.510;2022-12-29T03:06:00;97321.34;;;1.90;100.00
55592;BME280;41454;53.396;-1.510;2022-12-29T03:08:44;97321.36;;;1.46;100.00
55592;BME280;41454;53.396;-1.510;2022-12-29T03:11:14;97324.54;;;1.74;100.00
55592;BME280;41454;53.396;-1.510;2022-12-29T03:13:44;97321.51;;;2.20;100.00
55592;BME280;41454;53.396;-1.510;2022-12-29T03:16:20;97317.13;;;1.99;100.00
55592;BME280;41454;53.396;-1.510;2022-12-29T03:18:56;97322.17;;;2.31;100.00
55592;BME280;41454;53.396;-1.510;2022-12-29T03:21:31;97327.36;;;2.21;100.00
55592;BME280;41454;53.396;-1.510;2022-12-29T03:24:01;97338.16;;;2.50;100.00
55592;BME280;41454;53.396;-1.510;2022-12-29T03:26:29;97344.25;;;2.17;100.00
55592;BME280;41454;53.396;-1.510;2022-12-29T03:28:58;97349.06;;;2.38;100.00
55592;BME280;41454;53.396;-1.510;2022-12-29T03:31:26;97350.56;;;2.59;100.00
55592;BME280;41454;53.396;-1.510;2022-12-29T03:33:54;97349.16;;;2.66;100.00
55592;BME280;41454;53.396;-1.510;2022-12-29T03:36:27;97342.15;;;2.86;100.00
55592;BME280;41454;53.396;-1.510;2022-12-29T03:39:01;97348.89;;;2.87;100.00
55592;BME280;41454;53.396;-1.510;2022-12-29T03:41:30;97355.40;;;2.75;100.00
55592;BME280;41454;53.396;-1.510;2022-12-29T03:43:59;97375.37;;;3.07;100.00
55592;BME280;41454;53.396;-1.510;2022-12-29T03:46:26;97373.02;;;3.16;100.00
55592;BME280;41454;53.396;-1.510;2022-12-29T03:48:54;97375.86;;;3.10;100.00
55592;BME280;41454;53.396;-1.510;2022-12-29T03:51:20;97383.71;;;3.36;100.00
55592;BME280;41454;53.396;-1.510;2022-12-29T03:53:48;97390.31;;;2.85;100.00
55592;BME280;41454;53.396;-1.510;2022-12-29T03:56:15;97381.75;;;2.83;100.00
55592;BME280;41454;53.396;-1.510;2022-12-29T03:58:43;97378.81;;;3.24;100.00
55592;BME280;41454;53.396;-1.510;2022-12-29T04:01:16;97387.34;;;3.07;100.00
55592;BME280;41454;53.396;-1.510;2022-12-29T04:03:43;97402.16;;;2.70;100.00
55592;BME280;41454;53.396;-1.510;2022-12-29T04:06:11;97402.10;;;2.77;100.00
55592;BME280;41454;53.396;-1.510;2022-12-29T04:08:38;97407.84;;;2.98;100.00
55592;BME280;41454;53.396;-1.510;2022-12-29T04:11:06;97406.93;;;2.66;100.00
55592;BME280;41454;53.396;-1.510;2022-12-29T04:13:33;97422.16;;;2.86;100.00
55592;BME280;41454;53.396;-1.510;2022-12-29T04:16:00;97418.76;;;2.62;100.00
55592;BME280;41454;53.396;-1.510;2022-12-29T04:18:28;97426.93;;;2.67;100.00
55592;BME280;41454;53.396;-1.510;2022-12-29T04:20:55;97425.67;;;2.94;100.00
55592;BME280;41454;53.396;-1.510;2022-12-29T04:23:23;97434.05;;;2.96;100.00
55592;BME280;41454;53.396;-1.510;2022-12-29T04:25:50;97437.33;;;2.91;100.00
55592;BME280;41454;53.396;-1.510;2022-12-29T04:28:17;97464.17;;;3.06;100.00
55592;BME280;41454;53.396;-1.510;2022-12-29T04:30:45;97470.81;;;2.94;100.00
55592;BME280;41454;53.396;-1.510;2022-12-29T04:33:13;97479.24;;;2.94;100.00
55592;BME280;41454;53.396;-1.510;2022-12-29T04:35:41;97467.53;;;2.89;100.00
55592;BME280;41454;53.396;-1.510;2022-12-29T04:38:13;97485.54;;;2.70;100.00
55592;BME280;41454;53.396;-1.510;2022-12-29T04:40:41;97489.65;;;2.87;100.00
55592;BME280;41454;53.396;-1.510;2022-12-29T04:43:09;97505.57;;;2.97;100.00
55592;BME280;41454;53.396;-1.510;2022-12-29T04:45:37;97491.60;;;2.82;100.00
55592;BME280;41454;53.396;-1.510;2022-12-29T04:48:05;97493.58;;;2.88;100.00
55592;BME280;41454;53.396;-1.510;2022-12-29T04:50:32;97497.61;;;3.12;100.00
55592;BME280;41454;53.396;-1.510;2022-12-29T04:52:59;97503.46;;;3.38;100.00
55592;BME280;41454;53.396;-1.510;2022-12-29T04:55:27;97508.03;;;2.96;100.00
55592;BME280;41454;53.396;-1.510;2022-12-29T04:57:55;97522.67;;;3.37;100.00
55592;BME280;41454;53.396;-1.510;2022-12-29T05:00:22;97531.70;;;3.16;100.00
55592;BME280;41454;53.396;-1.510;2022-12-29T05:02:50;97536.40;;;3.35;100.00
55592;BME280;41454;53.396;-1.510;2022-12-29T05:05:18;97540.74;;;3.20;100.00
55592;BME280;41454;53.396;-1.510;2022-12-29T05:07:45;97552.70;;;3.01;100.00
55592;BME280;41454;53.396;-1.510;2022-12-29T05:10:12;97554.35;;;2.99;100.00
55592;BME280;41454;53.396;-1.510;2022-12-29T05:12:40;97559.56;;;3.19;100.00
55592;BME280;41454;53.396;-1.510;2022-12-29T05:15:09;97559.01;;;3.30;100.00
55592;BME280;41454;53.396;-1.510;2022-12-29T05:17:37;97557.15;;;3.40;100.00
55592;BME280;41454;53.396;-1.510;2022-12-29T05:20:05;97560.21;;;3.24;100.00
55592;BME280;41454;53.396;-1.510;2022-12-29T05:22:33;97561.94;;;3.29;100.00
55592;BME280;41454;53.396;-1.510;2022-12-29T05:25:01;97572.86;;;3.33;100.00
55592;BME280;41454;53.396;-1.510;2022-12-29T05:27:28;97582.08;;;3.52;100.00
55592;BME280;41454;53.396;-1.510;2022-12-29T05:29:56;97596.80;;;3.35;100.00
55592;BME280;41454;53.396;-1.510;2022-12-29T05:32:23;97609.13;;;3.11;100.00
55592;BME280;41454;53.396;-1.510;2022-12-29T05:34:50;97599.98;;;3.41;100.00
55592;BME280;41454;53.396;-1.510;2022-12-29T05:37:18;97600.88;;;3.44;100.00
55592;BME280;41454;53.396;-1.510;2022-12-29T05:39:45;97596.80;;;3.35;100.00
55592;BME280;41454;53.396;-1.510;2022-12-29T05:42:13;97613.93;;;3.31;100.00
55592;BME280;41454;53.396;-1.510;2022-12-29T05:44:40;97606.47;;;3.34;100.00
55592;BME280;41454;53.396;-1.510;2022-12-29T05:47:08;97613.84;;;3.21;100.00
55592;BME280;41454;53.396;-1.510;2022-12-29T05:49:36;97614.86;;;3.41;100.00
55592;BME280;41454;53.396;-1.510;2022-12-29T05:52:03;97634.62;;;3.40;100.00
55592;BME280;41454;53.396;-1.510;2022-12-29T05:54:31;97641.58;;;3.50;100.00
55592;BME280;41454;53.396;-1.510;2022-12-29T05:56:58;97642.36;;;3.20;100.00
55592;BME280;41454;53.396;-1.510;2022-12-29T05:59:26;97647.67;;;3.02;100.00
55592;BME280;41454;53.396;-1.510;2022-12-29T06:01:53;97647.31;;;3.23;100.00
55592;BME280;41454;53.396;-1.510;2022-12-29T06:04:21;97647.32;;;3.26;100.00
55592;BME280;41454;53.396;-1.510;2022-12-29T06:06:49;97654.64;;;3.25;100.00
55592;BME280;41454;53.396;-1.510;2022-12-29T06:09:16;97660.44;;;3.38;100.00
55592;BME280;41454;53.396;-1.510;2022-12-29T06:11:44;97659.78;;;2.96;100.00
55592;BME280;41454;53.396;-1.510;2022-12-29T06:14:11;97652.22;;;3.04;100.00
55592;BME280;41454;53.396;-1.510;2022-12-29T06:16:38;97653.63;;;3.41;100.00
55592;BME280;41454;53.396;-1.510;2022-12-29T06:19:06;97663.16;;;3.37;100.00
55592;BME280;41454;53.396;-1.510;2022-12-29T06:21:34;97657.90;;;3.88;100.00
55592;BME280;41454;53.396;-1.510;2022-12-29T06:24:01;97656.21;;;3.30;100.00
55592;BME280;41454;53.396;-1.510;2022-12-29T06:26:29;97663.64;;;3.44;100.00
55592;BME280;41454;53.396;-1.510;2022-12-29T06:28:56;97665.21;;;2.66;100.00
55592;BME280;41454;53.396;-1.510;2022-12-29T06:31:23;97660.57;;;2.94;100.00
55592;BME280;41454;53.396;-1.510;2022-12-29T06:33:50;97678.46;;;2.87;100.00
55592;BME280;41454;53.396;-1.510;2022-12-29T06:36:18;97670.67;;;3.17;100.00
55592;BME280;41454;53.396;-1.510;2022-12-29T06:38:45;97667.46;;;3.30;100.00
55592;BME280;41454;53.396;-1.510;2022-12-29T06:41:13;97660.07;;;3.01;100.00
55592;BME280;41454;53.396;-1.510;2022-12-29T06:43:40;97674.46;;;3.13;100.00
55592;BME280;41454;53.396;-1.510;2022-12-29T06:46:07;97668.83;;;2.76;100.00
55592;BME280;41454;53.396;-1.510;2022-12-29T06:48:35;97669.23;;;2.95;100.00
55592;BME280;41454;53.396;-1.510;2022-12-29T06:51:03;97683.00;;;2.88;100.00
55592;BME280;41454;53.396;-1.510;2022-12-29T06:53:31;97679.81;;;2.77;100.00
55592;BME280;41454;53.396;-1.510;2022-12-29T06:55:58;97669.72;;;2.91;100.00
55592;BME280;41454;53.396;-1.510;2022-12-29T06:58:25;97675.58;;;2.74;100.00
55592;BME280;41454;53.396;-1.510;2022-12-29T07:00:53;97678.85;;;2.98;100.00
55592;BME280;41454;53.396;-1.510;2022-12-29T07:03:19;97682.42;;;2.99;100.00
55592;BME280;41454;53.396;-1.510;2022-12-29T07:05:46;97681.08;;;2.88;100.00
55592;BME280;41454;53.396;-1.510;2022-12-29T07:08:16;97672.18;;;2.98;100.00
55592;BME280;41454;53.396;-1.510;2022-12-29T07:10:43;97690.97;;;2.76;100.00
55592;BME280;41454;53.396;-1.510;2022-12-29T07:13:10;97705.00;;;2.92;100.00
55592;BME280;41454;53.396;-1.510;2022-12-29T07:15:38;97696.08;;;2.87;100.00
55592;BME280;41454;53.396;-1.510;2022-12-29T07:18:05;97701.93;;;2.46;100.00
55592;BME280;41454;53.396;-1.510;2022-12-29T07:20:32;97714.39;;;2.64;100.00
55592;BME280;41454;53.396;-1.510;2022-12-29T07:22:59;97712.56;;;2.65;100.00
55592;BME280;41454;53.396;-1.510;2022-12-29T07:25:26;97716.20;;;2.85;100.00
55592;BME280;41454;53.396;-1.510;2022-12-29T07:27:54;97723.86;;;2.83;100.00
55592;BME280;41454;53.396;-1.510;2022-12-29T07:30:22;97716.94;;;2.90;100.00
55592;BME280;41454;53.396;-1.510;2022-12-29T07:32:48;97721.20;;;2.51;100.00
55592;BME280;41454;53.396;-1.510;2022-12-29T07:35:16;97713.93;;;2.37;100.00
55592;BME280;41454;53.396;-1.510;2022-12-29T07:37:43;97723.94;;;2.48;100.00
55592;BME280;41454;53.396;-1.510;2022-12-29T07:40:11;97728.95;;;2.65;100.00
55592;BME280;41454;53.396;-1.510;2022-12-29T07:42:38;97737.27;;;2.36;100.00
55592;BME280;41454;53.396;-1.510;2022-12-29T07:45:06;97745.37;;;2.34;100.00
55592;BME280;41454;53.396;-1.510;2022-12-29T07:47:34;97756.85;;;2.48;100.00
55592;BME280;41454;53.396;-1.510;2022-12-29T07:50:01;97754.82;;;2.43;100.00
55592;BME280;41454;53.396;-1.510;2022-12-29T07:52:29;97756.07;;;2.48;100.00
55592;BME280;41454;53.396;-1.510;2022-12-29T07:54:56;97773.76;;;2.49;100.00
55592;BME280;41454;53.396;-1.510;2022-12-29T07:57:24;97766.16;;;2.46;100.00
55592;BME280;41454;53.396;-1.510;2022-12-29T07:59:50;97772.73;;;2.40;100.00
55592;BME280;41454;53.396;-1.510;2022-12-29T08:02:18;97776.30;;;2.23;100.00
55592;BME280;41454;53.396;-1.510;2022-12-29T08:04:44;97790.96;;;2.49;100.00
55592;BME280;41454;53.396;-1.510;2022-12-29T08:07:12;97783.04;;;2.35;100.00
55592;BME280;41454;53.396;-1.510;2022-12-29T08:09:39;97789.98;;;2.47;100.00
55592;BME280;41454;53.396;-1.510;2022-12-29T08:12:08;97783.83;;;2.01;100.00
55592;BME280;41454;53.396;-1.510;2022-12-29T08:14:36;97792.99;;;2.29;100.00
55592;BME280;41454;53.396;-1.510;2022-12-29T08:17:04;97792.74;;;2.55;100.00
55592;BME280;41454;53.396;-1.510;2022-12-29T08:19:31;97795.39;;;2.45;100.00
55592;BME280;41454;53.396;-1.510;2022-12-29T08:21:58;97800.12;;;2.61;100.00
55592;BME280;41454;53.396;-1.510;2022-12-29T08:24:26;97806.80;;;2.46;100.00
55592;BME280;41454;53.396;-1.510;2022-12-29T08:26:54;97806.21;;;2.38;100.00
55592;BME280;41454;53.396;-1.510;2022-12-29T08:29:21;97830.31;;;2.31;100.00
55592;BME280;41454;53.396;-1.510;2022-12-29T08:31:48;97826.07;;;2.22;100.00
55592;BME280;41454;53.396;-1.510;2022-12-29T08:34:17;97834.49;;;2.37;100.00
55592;BME280;41454;53.396;-1.510;2022-12-29T08:36:44;97848.13;;;2.54;100.00
55592;BME280;41454;53.396;-1.510;2022-12-29T08:39:11;97833.82;;;2.58;100.00
55592;BME280;41454;53.396;-1.510;2022-12-29T08:41:39;97839.92;;;2.63;100.00
55592;BME280;41454;53.396;-1.510;2022-12-29T08:44:06;97838.82;;;2.34;100.00
55592;BME280;41454;53.396;-1.510;2022-12-29T08:46:33;97851.53;;;2.72;100.00
55592;BME280;41454;53.396;-1.510;2022-12-29T08:49:00;97855.56;;;2.70;100.00
55592;BME280;41454;53.396;-1.510;2022-12-29T08:51:28;97869.03;;;2.78;100.00
55592;BME280;41454;53.396;-1.510;2022-12-29T08:53:56;97871.93;;;2.63;100.00
55592;BME280;41454;53.396;-1.510;2022-12-29T08:56:23;97863.57;;;2.69;100.00
55592;BME280;41454;53.396;-1.510;2022-12-29T08:58:51;97891.85;;;2.84;100.00
55592;BME280;41454;53.396;-1.510;2022-12-29T09:01:19;97897.17;;;2.69;100.00
55592;BME280;41454;53.396;-1.510;2022-12-29T09:03:47;97888.19;;;2.74;100.00
55592;BME280;41454;53.396;-1.510;2022-12-29T09:06:16;97912.62;;;2.86;100.00
55592;BME280;41454;53.396;-1.510;2022-12-29T09:08:44;97905.16;;;2.99;100.00
55592;BME280;41454;53.396;-1.510;2022-12-29T09:11:14;97903.76;;;2.81;100.00
55592;BME280;41454;53.396;-1.510;2022-12-29T09:13:41;97906.19;;;2.62;100.00
55592;BME280;41454;53.396;-1.510;2022-12-29T09:16:09;97909.70;;;2.69;100.00
55592;BME280;41454;53.396;-1.510;2022-12-29T09:18:37;97916.02;;;2.93;100.00
55592;BME280;41454;53.396;-1.510;2022-12-29T09:21:06;97920.40;;;2.88;100.00
55592;BME280;41454;53.396;-1.510;2022-12-29T09:23:34;97920.71;;;2.73;100.00
55592;BME280;41454;53.396;-1.510;2022-12-29T09:26:01;97909.07;;;2.50;100.00
55592;BME280;41454;53.396;-1.510;2022-12-29T09:28:29;97920.04;;;2.56;100.00
55592;BME280;41454;53.396;-1.510;2022-12-29T09:30:57;97913.53;;;2.78;100.00
55592;BME280;41454;53.396;-1.510;2022-12-29T09:33:24;97909.32;;;2.41;100.00
55592;BME280;41454;53.396;-1.510;2022-12-29T09:35:53;97934.33;;;2.36;100.00
55592;BME280;41454;53.396;-1.510;2022-12-29T09:38:21;97939.16;;;2.44;100.00
55592;BME280;41454;53.396;-1.510;2022-12-29T09:40:51;97928.20;;;2.46;100.00
55592;BME280;41454;53.396;-1.510;2022-12-29T09:43:32;97929.69;;;2.60;100.00
55592;BME280;41454;53.396;-1.510;2022-12-29T09:46:10;97931.10;;;2.59;100.00
55592;BME280;41454;53.396;-1.510;2022-12-29T09:48:45;97945.85;;;2.15;100.00
55592;BME280;41454;53.396;-1.510;2022-12-29T09:51:18;97945.85;;;2.68;100.00
55592;BME280;41454;53.396;-1.510;2022-12-29T09:53:51;97965.27;;;2.49;100.00
55592;BME280;41454;53.396;-1.510;2022-12-29T09:56:22;97960.70;;;2.59;100.00
55592;BME280;41454;53.396;-1.510;2022-12-29T09:58:53;97960.82;;;2.57;100.00
55592;BME280;41454;53.396;-1.510;2022-12-29T10:01:28;97960.63;;;2.82;100.00
55592;BME280;41454;53.396;-1.510;2022-12-29T10:03:58;97960.59;;;2.48;100.00
55592;BME280;41454;53.396;-1.510;2022-12-29T10:06:32;97963.19;;;2.34;100.00
55592;BME280;41454;53.396;-1.510;2022-12-29T10:09:10;97984.70;;;2.67;100.00
55592;BME280;41454;53.396;-1.510;2022-12-29T10:11:57;97979.56;;;2.60;100.00
55592;BME280;41454;53.396;-1.510;2022-12-29T10:14:42;97968.04;;;2.64;100.00
55592;BME280;41454;53.396;-1.510;2022-12-29T10:17:24;97993.32;;;2.45;100.00
55592;BME280;41454;53.396;-1.510;2022-12-29T10:20:07;97978.10;;;2.28;100.00
55592;BME280;41454;53.396;-1.510;2022-12-29T10:22:48;97981.23;;;2.49;100.00
55592;BME280;41454;53.396;-1.510;2022-12-29T10:25:22;97986.24;;;2.67;100.00
55592;BME280;41454;53.396;-1.510;2022-12-29T10:27:52;97988.66;;;2.43;100.00
55592;BME280;41454;53.396;-1.510;2022-12-29T10:30:20;97980.24;;;2.46;100.00
55592;BME280;41454;53.396;-1.510;2022-12-29T10:32:51;97987.00;;;2.38;100.00
55592;BME280;41454;53.396;-1.510;2022-12-29T10:35:21;97979.62;;;2.56;100.00
55592;BME280;41454;53.396;-1.510;2022-12-29T10:37:53;97994.64;;;2.39;100.00
55592;BME280;41454;53.396;-1.510;2022-12-29T10:40:27;98007.53;;;2.66;100.00
55592;BME280;41454;53.396;-1.510;2022-12-29T10:42:57;97995.03;;;2.37;100.00
55592;BME280;41454;53.396;-1.510;2022-12-29T10:45:29;98004.50;;;2.63;100.00
55592;BME280;41454;53.396;-1.510;2022-12-29T10:48:00;98021.99;;;2.66;100.00
55592;BME280;41454;53.396;-1.510;2022-12-29T10:50:29;98008.97;;;2.91;100.00
55592;BME280;41454;53.396;-1.510;2022-12-29T10:52:59;98017.53;;;2.99;100.00
55592;BME280;41454;53.396;-1.510;2022-12-29T10:55:30;98012.73;;;2.45;100.00
55592;BME280;41454;53.396;-1.510;2022-12-29T10:58:02;98037.07;;;2.92;100.00
55592;BME280;41454;53.396;-1.510;2022-12-29T11:00:31;98035.48;;;2.68;100.00
55592;BME280;41454;53.396;-1.510;2022-12-29T11:03:14;98036.22;;;2.80;100.00
55592;BME280;41454;53.396;-1.510;2022-12-29T11:05:53;98038.32;;;2.67;100.00
55592;BME280;41454;53.396;-1.510;2022-12-29T11:08:26;98031.82;;;2.65;100.00
55592;BME280;41454;53.396;-1.510;2022-12-29T11:11:00;98039.90;;;2.69;100.00
55592;BME280;41454;53.396;-1.510;2022-12-29T11:13:29;98046.22;;;2.49;100.00
55592;BME280;41454;53.396;-1.510;2022-12-29T11:15:56;98040.39;;;2.48;100.00
55592;BME280;41454;53.396;-1.510;2022-12-29T11:18:25;98055.29;;;2.44;100.00
55592;BME280;41454;53.396;-1.510;2022-12-29T11:20:54;98057.39;;;2.34;100.00
55592;BME280;41454;53.396;-1.510;2022-12-29T11:23:25;98043.95;;;2.57;100.00
55592;BME280;41454;53.396;-1.510;2022-12-29T11:26:15;98052.96;;;2.77;100.00
55592;BME280;41454;53.396;-1.510;2022-12-29T11:28:44;98061.24;;;2.49;100.00
55592;BME280;41454;53.396;-1.510;2022-12-29T11:31:16;98061.77;;;2.52;100.00
55592;BME280;41454;53.396;-1.510;2022-12-29T11:33:45;98050.47;;;2.50;100.00
55592;BME280;41454;53.396;-1.510;2022-12-29T11:36:16;98061.29;;;2.55;100.00
55592;BME280;41454;53.396;-1.510;2022-12-29T11:38:48;98054.59;;;2.54;100.00
55592;BME280;41454;53.396;-1.510;2022-12-29T11:41:22;98067.03;;;2.38;100.00
55592;BME280;41454;53.396;-1.510;2022-12-29T11:43:51;98049.07;;;2.70;100.00
55592;BME280;41454;53.396;-1.510;2022-12-29T11:46:23;98065.11;;;2.69;100.00
55592;BME280;41454;53.396;-1.510;2022-12-29T11:48:52;98058.57;;;3.03;100.00
55592;BME280;41454;53.396;-1.510;2022-12-29T11:51:25;98068.91;;;2.55;100.00
55592;BME280;41454;53.396;-1.510;2022-12-29T11:53:56;98067.97;;;2.82;100.00
55592;BME280;41454;53.396;-1.510;2022-12-29T11:56:33;98056.11;;;2.76;100.00
55592;BME280;41454;53.396;-1.510;2022-12-29T11:59:25;98067.72;;;2.65;100.00
55592;BME280;41454;53.396;-1.510;2022-12-29T12:02:10;98086.04;;;2.82;100.00
55592;BME280;41454;53.396;-1.510;2022-12-29T12:04:41;98063.93;;;2.50;100.00
55592;BME280;41454;53.396;-1.510;2022-12-29T12:07:13;98057.45;;;2.82;100.00
55592;BME280;41454;53.396;-1.510;2022-12-29T12:09:45;98073.67;;;2.59;100.00
55592;BME280;41454;53.396;-1.510;2022-12-29T12:12:27;98071.06;;;3.28;100.00
55592;BME280;41454;53.396;-1.510;2022-12-29T12:14:57;98079.68;;;2.94;100.00
55592;BME280;41454;53.396;-1.510;2022-12-29T12:17:29;98080.42;;;3.00;100.00
55592;BME280;41454;53.396;-1.510;2022-12-29T12:20:03;98077.76;;;3.26;100.00
55592;BME280;41454;53.396;-1.510;2022-12-29T12:22:35;98099.93;;;3.28;100.00
55592;BME280;41454;53.396;-1.510;2022-12-29T12:25:12;98096.25;;;3.17;100.00
55592;BME280;41454;53.396;-1.510;2022-12-29T12:27:43;98098.25;;;3.16;100.00
55592;BME280;41454;53.396;-1.510;2022-12-29T12:30:15;98091.85;;;3.38;100.00
55592;BME280;41454;53.396;-1.510;2022-12-29T12:32:52;98092.10;;;3.26;100.00
55592;BME280;41454;53.396;-1.510;2022-12-29T12:35:29;98086.76;;;3.57;100.00
55592;BME280;41454;53.396;-1.510;2022-12-29T12:38:13;98095.87;;;3.53;100.00
55592;BME280;41454;53.396;-1.510;2022-12-29T12:40:57;98104.32;;;3.56;100.00
55592;BME280;41454;53.396;-1.510;2022-12-29T12:43:39;98105.63;;;3.31;100.00
55592;BME280;41454;53.396;-1.510;2022-12-29T12:48:35;98100.82;;;4.02;100.00
55592;BME280;41454;53.396;-1.510;2022-12-29T12:51:14;98101.11;;;2.90;100.00
55592;BME280;41454;53.396;-1.510;2022-12-29T12:53:54;98108.30;;;3.30;100.00
55592;BME280;41454;53.396;-1.510;2022-12-29T12:56:37;98102.30;;;2.91;100.00
55592;BME280;41454;53.396;-1.510;2022-12-29T12:59:21;98115.67;;;3.13;100.00
55592;BME280;41454;53.396;-1.510;2022-12-29T13:02:01;98115.84;;;3.16;100.00
55592;BME280;41454;53.396;-1.510;2022-12-29T13:04:45;98108.48;;;3.05;100.00
55592;BME280;41454;53.396;-1.510;2022-12-29T13:07:24;98121.73;;;3.39;100.00
55592;BME280;41454;53.396;-1.510;2022-12-29T13:10:08;98124.35;;;3.23;100.00
55592;BME280;41454;53.396;-1.510;2022-12-29T13:12:46;98123.16;;;3.66;100.00